Time;durP1;ratioP1;P1;durP2;ratioP2;P2;SDS_P1;SDS_P2;PMS_P1;PMS_P2;Temp;Humidity;BMP_temperature;BMP_pressure;BME280_temperature;BME280_humidity;BME280_pressure;Samples;Min_cycle;Max_cycle;Signal;HPM_P1;HPM_P2
2021/03/26 00:01:53;;;;;;;;;;;;;;;;;;5060308;28;19967;-84
2021/03/26 00:04:19;;;;;;;;;;;;;;;;;;5056590;28;20023;-84
2021/03/26 00:06:47;;;;;;;;;;;;;;;;;;5054464;28;19972;-84
2021/03/26 00:09:21;;;;;;;;;;;;;;;;;;5054128;28;20289;-83
2021/03/26 00:11:46;;;;;;;;;;;;;;;;;;5053360;28;19921;-85
2021/03/26 00:14:12;;;;;;;;;;;;;;;;;;5054586;28;20020;-84
2021/03/26 00:16:43;;;;;;;;;;;;;;;;;;5054342;28;19962;-84
2021/03/26 00:19:09;;;;;;;;;;;;;;;;;;5054487;28;19921;-84
2021/03/26 00:21:35;;;;;;;;;;;;;;;;;;5053251;28;19921;-83
2021/03/26 00:24:02;;;;;;;;;;;;;;;;;;5053592;28;20274;-84
2021/03/26 00:26:27;;;;;;;;;;;;;;;;;;5054274;28;20270;-84
2021/03/26 00:28:53;;;;;;;;;;;;;;;;;;5053352;28;19928;-84
2021/03/26 00:31:18;;;;;;;;;;;;;;;;;;5053628;28;19929;-83
2021/03/26 00:33:43;;;;;;;;;;;;;;;;;;5053478;28;19964;-84
2021/03/26 00:36:09;;;;;;;;;;;;;;;;;;5053787;28;20361;-84
2021/03/26 00:38:35;;;;;;;;;;;;;;;;;;5053533;28;19927;-83
2021/03/26 00:41:00;;;;;;;;;;;;;;;;;;5053398;28;19982;-84
2021/03/26 00:43:26;;;;;;;;;;;;;;;;;;5053992;28;19944;-84
2021/03/26 00:45:51;;;;;;;;;;;;;;;;;;5053864;28;19950;-83
2021/03/26 00:48:18;;;;;;;;;;;;;;;;;;5053697;28;19924;-83
2021/03/26 00:50:48;;;;;;;;;;;;;;;;;;5053437;28;19921;-82
2021/03/26 00:53:24;;;;;;;;;;;;;;;;;;5038968;28;19921;-83
2021/03/26 00:55:49;;;;;;;;;;;;;;;;;;5053731;28;19928;-84
2021/03/26 00:58:15;;;;;;;;;;;;;;;;;;5052887;28;19921;-83
2021/03/26 01:00:41;;;;;;;;;;;;;;;;;;5040326;28;20369;-83
2021/03/26 01:03:06;;;;;;;;;;;;;;;;;;5038124;28;20270;-84
2021/03/26 01:05:34;;;;;;;;;;;;;;;;;;5053532;28;19929;-82
2021/03/26 01:08:00;;;;;;;;;;;;;;;;;;5053314;28;19955;-83
2021/03/26 01:10:29;;;;;;;;;;;;;;;;;;5052902;28;20014;-82
2021/03/26 01:12:58;;;;;;;;;;;;;;;;;;5053287;28;19921;-83
2021/03/26 01:15:24;;;;;;;;;;;;;;;;;;5052934;28;19920;-82
2021/03/26 01:17:50;;;;;;;;;;;;;;;;;;5052025;28;20330;-83
2021/03/26 01:20:18;;;;;;;;;;;;;;;;;;5052794;28;19971;-82
2021/03/26 01:22:43;;;;;;;;;;;;;;;;;;5052898;28;19921;-83
2021/03/26 01:25:15;;;;;;;;;;;;;;;;;;5035340;28;19921;-84
2021/03/26 01:27:41;;;;;;;;;;;;;;;;;;5052971;28;19956;-83
2021/03/26 01:30:08;;;;;;;;;;;;;;;;;;5052717;28;20289;-83
2021/03/26 01:32:33;;;;;;;;;;;;;;;;;;5052195;28;19956;-85
2021/03/26 01:34:58;;;;;;;;;;;;;;;;;;5053158;28;19928;-83
2021/03/26 01:37:24;;;;;;;;;;;;;;;;;;5052518;28;19921;-83
2021/03/26 01:39:49;;;;;;;;;;;;;;;;;;5052907;28;20389;-82
2021/03/26 01:42:22;;;;;;;;;;;;;;;;;;5052854;28;20360;-83
2021/03/26 01:44:47;;;;;;;;;;;;;;;;;;5054191;28;19921;-83
2021/03/26 01:47:12;;;;;;;;;;;;;;;;;;5059195;28;20028;-84
2021/03/26 01:49:38;;;;;;;;;;;;;;;;;;5077321;28;19913;-83
2021/03/26 01:52:03;;;;;;;;;;;;;;;;;;5060393;28;19924;-84
2021/03/26 01:54:30;;;;;;;;;;;;;;;;;;5055188;28;19925;-86
2021/03/26 01:56:56;;;;;;;;;;;;;;;;;;5053469;28;19967;-87
2021/03/26 01:59:21;;;;;;;;;;;;;;;;;;5052909;28;19976;-86
2021/03/26 02:01:50;;;;;;;;;;;;;;;;;;5052754;28;19921;-85
2021/03/26 02:04:26;;;;;;;;;;;;;;;;;;5040104;28;20496;-88
2021/03/26 02:06:52;;;;;;;;;;;;;;;;;;5056252;28;19966;-87
2021/03/26 02:09:20;;;;;;;;;;;;;;;;;;5057168;28;19999;-87
2021/03/26 02:11:54;;;;;;;;;;;;;;;;;;5050193;28;20274;-86
2021/03/26 02:14:25;;;;;;;;;;;;;;;;;;5073436;28;19925;-87
2021/03/26 02:16:51;;;;;;;;;;;;;;;;;;5057342;28;19938;-87
2021/03/26 02:19:22;;;;;;;;;;;;;;;;;;5057077;28;19931;-87
2021/03/26 02:21:48;;;;;;;;;;;;;;;;;;5039432;28;20013;-87
2021/03/26 02:24:13;;;;;;;;;;;;;;;;;;5057168;28;20730;-88
2021/03/26 02:26:41;;;;;;;;;;;;;;;;;;5057828;28;20300;-86
2021/03/26 02:29:22;;;;;;;;;;;;;;;;;;5063099;28;19921;-86
2021/03/26 02:31:48;;;;;;;;;;;;;;;;;;5061887;28;19921;-87
2021/03/26 02:34:13;;;;;;;;;;;;;;;;;;5056083;28;19928;-87
2021/03/26 02:36:42;;;;;;;;;;;;;;;;;;5056483;28;20278;-87
2021/03/26 02:39:34;;;;;;;;;;;;;;;;;;5032013;28;19921;-87
2021/03/26 02:42:04;;;;;;;;;;;;;;;;;;5053820;28;19973;-87
2021/03/26 02:44:51;;;;;;;;;;;;;;;;;;5056364;28;20369;-87
2021/03/26 02:47:35;;;;;;;;;;;;;;;;;;5058395;28;19921;-87
2021/03/26 02:50:19;;;;;;;;;;;;;;;;;;5056076;28;19929;-87
2021/03/26 02:52:50;;;;;;;;;;;;;;;;;;5066780;28;19980;-87
2021/03/26 02:55:15;;;;;;;;;;;;;;;;;;5080714;28;19909;-86
2021/03/26 02:57:46;;;;;;;;;;;;;;;;;;5079428;28;19968;-86
2021/03/26 03:00:16;;;;;;;;;;;;;;;;;;5079009;28;19920;-86
2021/03/26 03:02:42;;;;;;;;;;;;;;;;;;5064468;28;19932;-86
2021/03/26 03:05:22;;;;;;;;;;;;;;;;;;5071927;28;20003;-87
2021/03/26 03:07:50;;;;;;;;;;;;;;;;;;5059862;28;19917;-87
2021/03/26 03:10:19;;;;;;;;;;;;;;;;;;5056397;28;19990;-86
2021/03/26 03:12:45;;;;;;;;;;;;;;;;;;5054763;28;19917;-86
2021/03/26 03:15:25;;;;;;;;;;;;;;;;;;5054981;28;19964;-86
2021/03/26 03:18:02;;;;;;;;;;;;;;;;;;5054302;28;19917;-87
2021/03/26 03:20:33;;;;;;;;;;;;;;;;;;5042517;28;19924;-86
2021/03/26 03:23:21;;;;;;;;;;;;;;;;;;5054971;28;20015;-87
2021/03/26 03:25:46;;;;;;;;;;;;;;;;;;5054784;28;19921;-86
2021/03/26 03:28:18;;;;;;;;;;;;;;;;;;5054526;28;19971;-86
2021/03/26 03:31:02;;;;;;;;;;;;;;;;;;5034840;28;20352;-86
2021/03/26 03:33:30;;;;;;;;;;;;;;;;;;5054007;28;19928;-86
2021/03/26 03:35:57;;;;;;;;;;;;;;;;;;5054244;28;20008;-87
2021/03/26 03:38:23;;;;;;;;;;;;;;;;;;5054545;28;19928;-85
2021/03/26 03:40:57;;;;;;;;;;;;;;;;;;5054219;28;19982;-87
2021/03/26 03:43:27;;;;;;;;;;;;;;;;;;5053069;28;19931;-86
2021/03/26 03:45:53;;;;;;;;;;;;;;;;;;5054033;28;20395;-86
2021/03/26 03:48:24;;;;;;;;;;;;;;;;;;5054053;28;19928;-86
2021/03/26 03:51:08;;;;;;;;;;;;;;;;;;5054624;28;19921;-87
2021/03/26 03:53:43;;;;;;;;;;;;;;;;;;5046913;28;20392;-87
2021/03/26 03:56:19;;;;;;;;;;;;;;;;;;5053961;28;20292;-86
2021/03/26 03:58:49;;;;;;;;;;;;;;;;;;5052784;28;19921;-86
2021/03/26 04:01:28;;;;;;;;;;;;;;;;;;5054067;28;19928;-86
2021/03/26 04:04:02;;;;;;;;;;;;;;;;;;5042039;28;20347;-86
2021/03/26 04:06:35;;;;;;;;;;;;;;;;;;5053892;28;19940;-86
2021/03/26 04:09:12;;;;;;;;;;;;;;;;;;5073710;28;19932;-86
2021/03/26 04:11:57;;;;;;;;;;;;;;;;;;5070709;28;19925;-85
2021/03/26 04:14:22;;;;;;;;;;;;;;;;;;5056471;28;19924;-85
2021/03/26 04:16:52;;;;;;;;;;;;;;;;;;5053613;28;20177;-85
2021/03/26 04:19:23;;;;;;;;;;;;;;;;;;5053747;28;19925;-85
2021/03/26 04:21:51;;;;;;;;;;;;;;;;;;5057549;28;19921;-85
2021/03/26 04:24:19;;;;;;;;;;;;;;;;;;5060085;28;19974;-85
2021/03/26 04:27:03;;;;;;;;;;;;;;;;;;5055671;28;20003;-85
2021/03/26 04:29:33;;;;;;;;;;;;;;;;;;5045068;28;19996;-86
2021/03/26 04:32:02;;;;;;;;;;;;;;;;;;5053368;28;20377;-86
2021/03/26 04:34:28;;;;;;;;;;;;;;;;;;5040569;28;19925;-87
2021/03/26 04:36:56;;;;;;;;;;;;;;;;;;5053421;28;19920;-86
2021/03/26 04:39:24;;;;;;;;;;;;;;;;;;5052483;28;19925;-86
2021/03/26 04:41:59;;;;;;;;;;;;;;;;;;5053105;28;19927;-85
2021/03/26 04:44:48;;;;;;;;;;;;;;;;;;5052775;28;19924;-85
2021/03/26 04:47:19;;;;;;;;;;;;;;;;;;5051432;28;20031;-86
2021/03/26 04:49:49;;;;;;;;;;;;;;;;;;5040064;28;19917;-86
2021/03/26 04:52:20;;;;;;;;;;;;;;;;;;5052878;28;19974;-85
2021/03/26 04:54:51;;;;;;;;;;;;;;;;;;5053100;28;20352;-86
2021/03/26 04:57:26;;;;;;;;;;;;;;;;;;5053034;28;20048;-86
2021/03/26 04:59:58;;;;;;;;;;;;;;;;;;5052545;28;19921;-86
2021/03/26 05:02:23;;;;;;;;;;;;;;;;;;5053007;28;19924;-86
2021/03/26 05:04:51;;;;;;;;;;;;;;;;;;5052964;28;19921;-85
2021/03/26 05:07:19;;;;;;;;;;;;;;;;;;5052996;28;19924;-86
2021/03/26 05:09:45;;;;;;;;;;;;;;;;;;5052707;28;20336;-86
2021/03/26 05:12:13;;;;;;;;;;;;;;;;;;5052441;28;19921;-86
2021/03/26 05:14:51;;;;;;;;;;;;;;;;;;5048657;28;20516;-86
2021/03/26 05:17:20;;;;;;;;;;;;;;;;;;5036306;28;19921;-86
2021/03/26 05:20:08;;;;;;;;;;;;;;;;;;5051869;28;19921;-85
2021/03/26 05:22:50;;;;;;;;;;;;;;;;;;5033246;28;19944;-86
2021/03/26 05:25:22;;;;;;;;;;;;;;;;;;5052778;28;20011;-86
2021/03/26 05:27:48;;;;;;;;;;;;;;;;;;5052936;28;19931;-86
2021/03/26 05:30:43;;;;;;;;;;;;;;;;;;5061212;28;19928;-86
2021/03/26 05:33:13;;;;;;;;;;;;;;;;;;5033361;28;19920;-86
2021/03/26 05:35:41;;;;;;;;;;;;;;;;;;5052988;28;19928;-86
2021/03/26 05:38:11;;;;;;;;;;;;;;;;;;5052895;28;19943;-86
2021/03/26 05:40:36;;;;;;;;;;;;;;;;;;5053674;28;19966;-86
2021/03/26 05:43:29;;;;;;;;;;;;;;;;;;5045032;28;19925;-85
2021/03/26 05:46:14;;;;;;;;;;;;;;;;;;5056765;28;20388;-85
2021/03/26 05:48:51;;;;;;;;;;;;;;;;;;5056465;28;19921;-86
2021/03/26 05:51:19;;;;;;;;;;;;;;;;;;5056741;28;19920;-86
2021/03/26 05:53:53;;;;;;;;;;;;;;;;;;5057129;28;19921;-86
2021/03/26 05:56:38;;;;;;;;;;;;;;;;;;5051688;28;20328;-86
2021/03/26 05:59:21;;;;;;;;;;;;;;;;;;5056362;28;19920;-85
2021/03/26 06:01:59;;;;;;;;;;;;;;;;;;5042777;28;19928;-86
2021/03/26 06:04:43;;;;;;;;;;;;;;;;;;5056972;28;19921;-85
2021/03/26 06:07:34;;;;;;;;;;;;;;;;;;5056015;28;19925;-86
2021/03/26 06:10:05;;;;;;;;;;;;;;;;;;5042223;28;19921;-86
2021/03/26 06:12:36;;;;;;;;;;;;;;;;;;5055982;28;19920;-85
2021/03/26 06:15:03;;;;;;;;;;;;;;;;;;5073615;28;19932;-86
2021/03/26 06:17:43;;;;;;;;;;;;;;;;;;5081619;28;19929;-86
2021/03/26 06:20:34;;;;;;;;;;;;;;;;;;5078545;28;19925;-84
2021/03/26 06:23:00;;;;;;;;;;;;;;;;;;5081381;28;19936;-85
2021/03/26 06:25:44;;;;;;;;;;;;;;;;;;5062617;28;19931;-85
2021/03/26 06:28:20;;;;;;;;;;;;;;;;;;5081972;28;20076;-85
2021/03/26 06:31:04;;;;;;;;;;;;;;;;;;5076165;28;19925;-85
2021/03/26 06:33:29;;;;;;;;;;;;;;;;;;5062301;28;19921;-86
2021/03/26 06:35:58;;;;;;;;;;;;;;;;;;5064088;28;19992;-85
2021/03/26 06:38:23;;;;;;;;;;;;;;;;;;5065701;28;19956;-86
2021/03/26 06:40:52;;;;;;;;;;;;;;;;;;5053421;28;19921;-85
2021/03/26 06:43:36;;;;;;;;;;;;;;;;;;5055504;28;19920;-86
2021/03/26 06:46:27;;;;;;;;;;;;;;;;;;5050846;28;19963;-86
2021/03/26 06:49:04;;;;;;;;;;;;;;;;;;5034810;28;19924;-85
2021/03/26 06:51:32;;;;;;;;;;;;;;;;;;5056039;28;19921;-85
2021/03/26 06:54:10;;;;;;;;;;;;;;;;;;5055196;28;19974;-86
2021/03/26 06:56:48;;;;;;;;;;;;;;;;;;5055982;28;19967;-85
2021/03/26 06:59:32;;;;;;;;;;;;;;;;;;5053710;28;20445;-85
2021/03/26 07:02:19;;;;;;;;;;;;;;;;;;5057709;28;19920;-85
2021/03/26 07:05:14;;;;;;;;;;;;;;;;;;5053686;28;19975;-88
2021/03/26 07:07:58;;;;;;;;;;;;;;;;;;4974650;28;19931;-85
2021/03/26 07:10:37;;;;;;;;;;;;;;;;;;5047807;28;19921;-85
2021/03/26 07:13:08;;;;;;;;;;;;;;;;;;5053590;28;19925;-88
2021/03/26 07:15:54;;;;;;;;;;;;;;;;;;5053392;28;19920;-85
2021/03/26 07:18:22;;;;;;;;;;;;;;;;;;5054272;28;19928;-86
2021/03/26 07:20:58;;;;;;;;;;;;;;;;;;5054012;28;20434;-85
2021/03/26 07:23:42;;;;;;;;;;;;;;;;;;5044827;28;19956;-86
2021/03/26 07:26:26;;;;;;;;;;;;;;;;;;5054630;28;20448;-86
2021/03/26 07:29:01;;;;;;;;;;;;;;;;;;5054526;28;19921;-86
2021/03/26 07:31:45;;;;;;;;;;;;;;;;;;5055536;28;20004;-86
2021/03/26 07:34:13;;;;;;;;;;;;;;;;;;5053616;28;19921;-86
2021/03/26 07:36:53;;;;;;;;;;;;;;;;;;5054169;28;19964;-85
2021/03/26 07:39:19;;;;;;;;;;;;;;;;;;5029362;28;19929;-85
2021/03/26 07:42:02;;;;;;;;;;;;;;;;;;5054218;28;20254;-85
2021/03/26 07:44:30;;;;;;;;;;;;;;;;;;5053639;28;19931;-85
2021/03/26 07:47:06;;;;;;;;;;;;;;;;;;5051481;28;19924;-85
2021/03/26 07:49:31;;;;;;;;;;;;;;;;;;5052536;28;20499;-85
2021/03/26 07:52:17;;;;;;;;;;;;;;;;;;5053895;28;19921;-85
2021/03/26 07:54:43;;;;;;;;;;;;;;;;;;5053317;28;20404;-86
2021/03/26 07:57:44;;;;;;;;;;;;;;;;;;5054579;28;19924;-85
2021/03/26 08:00:18;;;;;;;;;;;;;;;;;;5008287;28;19929;-84
2021/03/26 08:02:46;;;;;;;;;;;;;;;;;;5047360;28;19921;-83
2021/03/26 08:05:27;;;;;;;;;;;;;;;;;;5054128;28;19974;-82
2021/03/26 08:07:55;;;;;;;;;;;;;;;;;;5054058;28;20359;-82
2021/03/26 08:10:38;;;;;;;;;;;;;;;;;;5054077;28;19971;-83
2021/03/26 08:13:07;;;;;;;;;;;;;;;;;;5054283;28;20293;-83
2021/03/26 08:15:51;;;;;;;;;;;;;;;;;;5036252;28;20382;-84
2021/03/26 08:18:23;;;;;;;;;;;;;;;;;;5050051;28;20362;-84
2021/03/26 08:20:58;;;;;;;;;;;;;;;;;;5054468;28;19928;-84
2021/03/26 08:23:23;;;;;;;;;;;;;;;;;;5054590;28;19927;-84
2021/03/26 08:26:04;;;;;;;;;;;;;;;;;;5052572;28;19983;-86
2021/03/26 08:28:32;;;;;;;;;;;;;;;;;;5055491;28;19944;-87
2021/03/26 08:31:00;;;;;;;;;;;;;;;;;;5056373;28;19921;-87
2021/03/26 08:33:28;;;;;;;;;;;;;;;;;;5055817;28;19927;-84
2021/03/26 08:36:00;;;;;;;;;;;;;;;;;;5036815;28;19963;-85
2021/03/26 08:38:44;;;;;;;;;;;;;;;;;;5053305;28;19927;-85
2021/03/26 08:41:17;;;;;;;;;;;;;;;;;;5053800;28;20377;-85
2021/03/26 08:43:48;;;;;;;;;;;;;;;;;;5053285;28;19932;-85
2021/03/26 08:46:16;;;;;;;;;;;;;;;;;;5050233;28;20069;-85
2021/03/26 08:49:08;;;;;;;;;;;;;;;;;;5048036;28;19936;-85
2021/03/26 08:52:02;;;;;;;;;;;;;;;;;;4951482;28;19962;-83
2021/03/26 08:54:43;;;;;;;;;;;;;;;;;;4952225;28;19924;-87
2021/03/26 08:57:13;;;;;;;;;;;;;;;;;;5013761;28;19993;-86
2021/03/26 09:00:12;;;;;;;;;;;;;;;;;;5013637;28;20815;-85
2021/03/26 09:03:00;;;;;;;;;;;;;;;;;;4953145;28;161960;-87
2021/03/26 09:05:45;;;;;;;;;;;;;;;;;;5049744;28;19967;-88
2021/03/26 09:08:24;;;;;;;;;;;;;;;;;;5054063;28;19928;-88
2021/03/26 09:10:57;;;;;;;;;;;;;;;;;;5055031;28;19929;-83
2021/03/26 09:13:23;;;;;;;;;;;;;;;;;;4989841;28;20023;-86
2021/03/26 09:38:18;;;;;;;5.38;1.67;;;;;;;;;;5076177;28;20134;-67
2021/03/26 09:41:30;;;;;;;8.43;1.60;;;;;;;;;;5033995;27;20382;-73
2021/03/26 09:44:08;;;;;;;5.68;1.77;;;;;;;;;;5025757;28;20397;-73
2021/03/26 09:46:40;;;;;;;7.50;2.45;;;;;;;;;;4895635;28;20050;-67
2021/03/26 09:49:24;;;;;;;5.20;1.40;;;;;;;;;;5009472;28;20034;-66
2021/03/26 09:51:51;;;;;;;;;;;;;;;;;;5010354;28;20030;-69
2021/03/26 09:54:40;;;;;;;5.78;1.40;;;;;;;;;;4956962;28;19917;-65
2021/03/26 10:02:31;;;;;;;6.55;1.65;;;;;;;;;;5006335;28;20346;-73
2021/03/26 10:05:11;;;;;;;4.53;1.00;;;;;;;;;;5001387;28;20432;-75
2021/03/26 10:07:51;;;;;;;6.78;1.60;;;;;;;;;;5027333;28;20116;-76
2021/03/26 10:13:21;;;;;;;5.28;1.50;;;;;;;;;;5026229;28;20125;-75
2021/03/26 10:16:10;;;;;;;5.28;1.30;;;;;;;;;;4999412;28;20046;-70
2021/03/26 10:18:50;;;;;;;3.45;1.10;;;;;;;;;;5024076;28;20048;-71
2021/03/26 10:21:30;;;;;;;4.78;1.27;;;;;;;;;;5027749;28;20136;-72
2021/03/26 10:24:10;;;;;;;5.97;1.27;;;;;;;;;;5025732;28;20465;-72
2021/03/26 10:27:06;;;;;;;3.70;1.27;;;;;;;;;;5026949;28;20038;-74
2021/03/26 10:29:55;;;;;;;5.35;1.30;;;;;;;;;;5025134;28;20041;-71
2021/03/26 10:33:31;;;;;;;7.68;1.73;;;;;;;;;;5023182;27;3194241;-70
2021/03/26 10:36:22;;;;;;;5.93;1.40;;;;;;;;;;5130403;28;20023;-71
2021/03/26 10:39:08;;;;;;;3.75;1.23;;;;;;;;;;5122917;28;20031;-72
2021/03/26 10:42:09;;;;;;;4.90;1.30;;;;;;;;;;5128488;28;20096;-73
2021/03/26 10:45:02;;;;;;;8.90;1.83;;;;;;;;;;5123620;28;20138;-71
2021/03/26 10:47:48;;;;;;;8.55;1.83;;;;;;;;;;5127587;28;20395;-71
2021/03/26 10:50:36;;;;;;;9.55;1.80;;;;;;;;;;5126196;27;20114;-72
2021/03/26 10:53:12;;;;;;;13.38;2.22;;;;;;;;;;5130218;28;20117;-69
2021/03/26 10:56:28;;;;;;;2.90;0.77;;;;;;;;;;5128335;28;20072;-79
2021/03/26 10:59:07;;;;;;;13.65;2.42;;;;;;;;;;5096208;27;20048;-68
2021/03/26 11:01:46;;;;;;;17.10;2.00;;;;;;;;;;5128510;28;20053;-68
2021/03/26 11:04:39;;;;;;;8.48;2.20;;;;;;;;;;5129255;27;20040;-63
2021/03/26 11:07:18;;;;;;;14.88;2.35;;;;;;;;;;5126420;28;20043;-61
2021/03/26 11:10:03;;;;;;;13.75;2.60;;;;;;;;;;5121935;27;20058;-61
2021/03/26 11:12:45;;;;;;;8.63;1.90;;;;;;;;;;5117219;28;20044;-61
2021/03/26 11:15:19;;;;;;;11.85;2.22;;;;;;;;;;5116668;27;20042;-61
2021/03/26 11:18:00;;;;;;;13.63;2.28;;;;;;;;;;5126639;27;20050;-60
2021/03/26 11:20:32;;;;;;;11.75;1.95;;;;;;;;;;5114066;28;20549;-61
2021/03/26 11:23:41;;;;;;;10.35;1.70;;;;;;;;;;5118990;28;20032;-61
2021/03/26 11:26:27;;;;;;;10.18;1.73;;;;;;;;;;5115517;28;20075;-61
2021/03/26 11:28:53;;;;;;;7.03;1.67;;;;;;;;;;5115078;28;20042;-61
